sensor_id;sensor_type;location;lat;lon;timestamp;P1;durP1;ratioP1;P2;durP2;ratioP2
10571;SDS011;5334;48.928;12.704;2022-10-17T00:00:37;1999.90;;;999.90;;
10571;SDS011;5334;48.928;12.704;2022-10-17T00:03:02;1999.90;;;999.90;;
10571;SDS011;5334;48.928;12.704;2022-10-17T00:05:28;1999.90;;;999.90;;
10571;SDS011;5334;48.928;12.704;2022-10-17T00:07:54;1999.90;;;999.90;;
10571;SDS011;5334;48.928;12.704;2022-10-17T00:10:19;1999.90;;;999.90;;
10571;SDS011;5334;48.928;12.704;2022-10-17T00:12:45;1999.90;;;999.90;;
10571;SDS011;5334;48.928;12.704;2022-10-17T00:15:14;1999.90;;;999.90;;
10571;SDS011;5334;48.928;12.704;2022-10-17T00:17:42;1999.90;;;999.90;;
10571;SDS011;5334;48.928;12.704;2022-10-17T00:20:07;1999.90;;;999.90;;
10571;SDS011;5334;48.928;12.704;2022-10-17T00:22:33;1999.90;;;999.90;;
10571;SDS011;5334;48.928;12.704;2022-10-17T00:24:59;1999.90;;;999.90;;
10571;SDS011;5334;48.928;12.704;2022-10-17T00:27:25;1999.90;;;999.90;;
10571;SDS011;5334;48.928;12.704;2022-10-17T00:29:51;1999.90;;;999.90;;
10571;SDS011;5334;48.928;12.704;2022-10-17T00:32:17;1999.90;;;999.90;;
10571;SDS011;5334;48.928;12.704;2022-10-17T00:34:43;1999.90;;;999.90;;
10571;SDS011;5334;48.928;12.704;2022-10-17T00:37:09;1999.90;;;999.90;;
10571;SDS011;5334;48.928;12.704;2022-10-17T00:39:35;1999.90;;;999.90;;
10571;SDS011;5334;48.928;12.704;2022-10-17T00:42:02;1999.90;;;999.90;;
10571;SDS011;5334;48.928;12.704;2022-10-17T00:46:53;1999.90;;;999.90;;
10571;SDS011;5334;48.928;12.704;2022-10-17T00:49:20;1999.90;;;999.90;;
10571;SDS011;5334;48.928;12.704;2022-10-17T00:51:48;1999.90;;;999.90;;
10571;SDS011;5334;48.928;12.704;2022-10-17T00:54:17;1999.90;;;999.90;;
10571;SDS011;5334;48.928;12.704;2022-10-17T00:56:46;1999.90;;;999.90;;
10571;SDS011;5334;48.928;12.704;2022-10-17T00:59:13;1999.90;;;999.90;;
10571;SDS011;5334;48.928;12.704;2022-10-17T01:01:41;1999.90;;;999.90;;
10571;SDS011;5334;48.928;12.704;2022-10-17T01:04:12;1999.90;;;999.90;;
10571;SDS011;5334;48.928;12.704;2022-10-17T01:06:38;1999.90;;;999.90;;
10571;SDS011;5334;48.928;12.704;2022-10-17T01:09:04;1999.90;;;999.90;;
10571;SDS011;5334;48.928;12.704;2022-10-17T01:17:04;1999.90;;;999.90;;
10571;SDS011;5334;48.928;12.704;2022-10-17T01:24:56;1999.90;;;999.90;;
10571;SDS011;5334;48.928;12.704;2022-10-17T01:27:37;1999.90;;;999.90;;
10571;SDS011;5334;48.928;12.704;2022-10-17T01:33:03;1999.90;;;999.90;;
10571;SDS011;5334;48.928;12.704;2022-10-17T01:35:47;1999.90;;;999.90;;
10571;SDS011;5334;48.928;12.704;2022-10-17T01:46:53;1999.90;;;999.90;;
10571;SDS011;5334;48.928;12.704;2022-10-17T01:49:24;1999.90;;;999.90;;
10571;SDS011;5334;48.928;12.704;2022-10-17T01:51:59;1999.90;;;999.90;;
10571;SDS011;5334;48.928;12.704;2022-10-17T01:54:30;1999.90;;;999.90;;
10571;SDS011;5334;48.928;12.704;2022-10-17T01:57:03;1999.90;;;999.90;;
10571;SDS011;5334;48.928;12.704;2022-10-17T01:59:36;1999.90;;;999.90;;
10571;SDS011;5334;48.928;12.704;2022-10-17T02:02:05;1999.90;;;999.90;;
10571;SDS011;5334;48.928;12.704;2022-10-17T02:04:31;1999.90;;;999.90;;
10571;SDS011;5334;48.928;12.704;2022-10-17T02:07:04;1999.90;;;999.90;;
10571;SDS011;5334;48.928;12.704;2022-10-17T02:09:33;1999.90;;;999.90;;
10571;SDS011;5334;48.928;12.704;2022-10-17T02:12:12;1999.90;;;999.90;;
10571;SDS011;5334;48.928;12.704;2022-10-17T02:17:40;1999.90;;;999.90;;
10571;SDS011;5334;48.928;12.704;2022-10-17T02:20:29;1999.90;;;999.90;;
10571;SDS011;5334;48.928;12.704;2022-10-17T02:25:43;1999.90;;;999.90;;
10571;SDS011;5334;48.928;12.704;2022-10-17T02:31:21;1999.90;;;999.90;;
10571;SDS011;5334;48.928;12.704;2022-10-17T02:33:54;1999.90;;;999.90;;
10571;SDS011;5334;48.928;12.704;2022-10-17T02:36:22;1999.90;;;999.90;;
10571;SDS011;5334;48.928;12.704;2022-10-17T02:38:51;1999.90;;;999.90;;
10571;SDS011;5334;48.928;12.704;2022-10-17T02:41:19;1999.90;;;999.90;;
10571;SDS011;5334;48.928;12.704;2022-10-17T02:43:47;1999.90;;;999.90;;
10571;SDS011;5334;48.928;12.704;2022-10-17T02:46:15;1999.90;;;999.90;;
10571;SDS011;5334;48.928;12.704;2022-10-17T02:48:55;1999.90;;;999.90;;
10571;SDS011;5334;48.928;12.704;2022-10-17T02:51:27;1999.90;;;999.90;;
10571;SDS011;5334;48.928;12.704;2022-10-17T02:54:04;1999.90;;;999.90;;
10571;SDS011;5334;48.928;12.704;2022-10-17T02:56:49;1999.90;;;999.90;;
10571;SDS011;5334;48.928;12.704;2022-10-17T02:59:20;1999.90;;;999.90;;
10571;SDS011;5334;48.928;12.704;2022-10-17T03:01:49;1999.90;;;999.90;;
10571;SDS011;5334;48.928;12.704;2022-10-17T03:04:16;1999.90;;;999.90;;
10571;SDS011;5334;48.928;12.704;2022-10-17T03:06:42;1999.90;;;999.90;;
10571;SDS011;5334;48.928;12.704;2022-10-17T03:09:09;1999.90;;;999.90;;
10571;SDS011;5334;48.928;12.704;2022-10-17T03:11:34;1999.90;;;999.90;;
10571;SDS011;5334;48.928;12.704;2022-10-17T03:14:00;1999.90;;;999.90;;
10571;SDS011;5334;48.928;12.704;2022-10-17T03:16:26;1999.90;;;999.90;;
10571;SDS011;5334;48.928;12.704;2022-10-17T03:18:52;1999.90;;;999.90;;
10571;SDS011;5334;48.928;12.704;2022-10-17T03:21:17;1999.90;;;999.90;;
10571;SDS011;5334;48.928;12.704;2022-10-17T03:23:43;1999.90;;;999.90;;
10571;SDS011;5334;48.928;12.704;2022-10-17T03:26:09;1999.90;;;999.90;;
10571;SDS011;5334;48.928;12.704;2022-10-17T03:28:35;1999.90;;;999.90;;
10571;SDS011;5334;48.928;12.704;2022-10-17T03:31:11;1999.90;;;999.90;;
10571;SDS011;5334;48.928;12.704;2022-10-17T03:33:39;1999.90;;;999.90;;
10571;SDS011;5334;48.928;12.704;2022-10-17T03:36:05;1999.90;;;999.90;;
10571;SDS011;5334;48.928;12.704;2022-10-17T03:38:39;1999.90;;;999.90;;
10571;SDS011;5334;48.928;12.704;2022-10-17T03:41:05;1999.90;;;999.90;;
10571;SDS011;5334;48.928;12.704;2022-10-17T03:43:31;1999.90;;;999.90;;
10571;SDS011;5334;48.928;12.704;2022-10-17T03:45:58;1999.90;;;999.90;;
10571;SDS011;5334;48.928;12.704;2022-10-17T03:48:25;1999.90;;;999.90;;
10571;SDS011;5334;48.928;12.704;2022-10-17T03:50:56;1999.90;;;999.90;;
10571;SDS011;5334;48.928;12.704;2022-10-17T03:53:26;1999.90;;;999.90;;
10571;SDS011;5334;48.928;12.704;2022-10-17T03:55:52;1999.90;;;999.90;;
10571;SDS011;5334;48.928;12.704;2022-10-17T03:58:18;1999.90;;;999.90;;
10571;SDS011;5334;48.928;12.704;2022-10-17T04:00:44;1999.90;;;999.90;;
10571;SDS011;5334;48.928;12.704;2022-10-17T04:03:10;1999.90;;;999.90;;
10571;SDS011;5334;48.928;12.704;2022-10-17T04:05:35;1999.90;;;999.90;;
10571;SDS011;5334;48.928;12.704;2022-10-17T04:08:01;1999.90;;;999.90;;
10571;SDS011;5334;48.928;12.704;2022-10-17T04:10:27;1999.90;;;999.90;;
10571;SDS011;5334;48.928;12.704;2022-10-17T04:12:53;1999.90;;;999.90;;
10571;SDS011;5334;48.928;12.704;2022-10-17T04:15:19;1999.90;;;999.90;;
10571;SDS011;5334;48.928;12.704;2022-10-17T04:17:45;1999.90;;;999.90;;
10571;SDS011;5334;48.928;12.704;2022-10-17T04:20:10;1999.90;;;999.90;;
10571;SDS011;5334;48.928;12.704;2022-10-17T04:22:36;1999.90;;;999.90;;
10571;SDS011;5334;48.928;12.704;2022-10-17T04:25:02;1999.90;;;999.90;;
10571;SDS011;5334;48.928;12.704;2022-10-17T04:27:28;1999.90;;;999.90;;
10571;SDS011;5334;48.928;12.704;2022-10-17T04:29:54;1999.90;;;999.90;;
10571;SDS011;5334;48.928;12.704;2022-10-17T04:32:19;1999.90;;;999.90;;
10571;SDS011;5334;48.928;12.704;2022-10-17T04:34:48;1999.90;;;999.90;;
10571;SDS011;5334;48.928;12.704;2022-10-17T04:37:14;1999.90;;;999.90;;
10571;SDS011;5334;48.928;12.704;2022-10-17T04:39:40;1999.90;;;999.90;;
10571;SDS011;5334;48.928;12.704;2022-10-17T04:42:06;1999.90;;;999.90;;
10571;SDS011;5334;48.928;12.704;2022-10-17T04:44:32;1999.90;;;999.90;;
10571;SDS011;5334;48.928;12.704;2022-10-17T04:46:59;1999.90;;;999.90;;
10571;SDS011;5334;48.928;12.704;2022-10-17T04:49:25;1999.90;;;999.90;;
10571;SDS011;5334;48.928;12.704;2022-10-17T04:51:51;1999.90;;;999.90;;
10571;SDS011;5334;48.928;12.704;2022-10-17T04:54:16;1999.90;;;999.90;;
10571;SDS011;5334;48.928;12.704;2022-10-17T04:56:42;1999.90;;;999.90;;
10571;SDS011;5334;48.928;12.704;2022-10-17T04:59:08;1999.90;;;999.90;;
10571;SDS011;5334;48.928;12.704;2022-10-17T05:01:34;1999.90;;;999.90;;
10571;SDS011;5334;48.928;12.704;2022-10-17T05:03:59;1999.90;;;999.90;;
10571;SDS011;5334;48.928;12.704;2022-10-17T05:06:25;1999.90;;;999.90;;
10571;SDS011;5334;48.928;12.704;2022-10-17T05:08:56;1999.90;;;999.90;;
10571;SDS011;5334;48.928;12.704;2022-10-17T05:11:23;1999.90;;;999.90;;
10571;SDS011;5334;48.928;12.704;2022-10-17T05:13:52;1999.90;;;999.90;;
10571;SDS011;5334;48.928;12.704;2022-10-17T05:16:19;1999.90;;;999.90;;
10571;SDS011;5334;48.928;12.704;2022-10-17T05:18:49;1999.90;;;999.90;;
10571;SDS011;5334;48.928;12.704;2022-10-17T05:21:16;1999.90;;;999.90;;
10571;SDS011;5334;48.928;12.704;2022-10-17T05:23:42;1999.90;;;999.90;;
10571;SDS011;5334;48.928;12.704;2022-10-17T05:26:08;1999.90;;;999.90;;
10571;SDS011;5334;48.928;12.704;2022-10-17T05:28:34;1999.90;;;999.90;;
10571;SDS011;5334;48.928;12.704;2022-10-17T05:31:01;1999.90;;;999.90;;
10571;SDS011;5334;48.928;12.704;2022-10-17T05:33:31;1999.90;;;999.90;;
10571;SDS011;5334;48.928;12.704;2022-10-17T05:35:57;1999.90;;;999.90;;
10571;SDS011;5334;48.928;12.704;2022-10-17T05:38:23;1999.90;;;999.90;;
10571;SDS011;5334;48.928;12.704;2022-10-17T05:40:49;1999.90;;;999.90;;
10571;SDS011;5334;48.928;12.704;2022-10-17T05:43:15;1999.90;;;999.90;;
10571;SDS011;5334;48.928;12.704;2022-10-17T05:45:41;1999.90;;;999.90;;
10571;SDS011;5334;48.928;12.704;2022-10-17T05:48:06;1999.90;;;999.90;;
10571;SDS011;5334;48.928;12.704;2022-10-17T05:50:33;1999.90;;;999.90;;
10571;SDS011;5334;48.928;12.704;2022-10-17T05:52:59;1999.90;;;999.90;;
10571;SDS011;5334;48.928;12.704;2022-10-17T05:55:25;1999.90;;;999.90;;
10571;SDS011;5334;48.928;12.704;2022-10-17T05:57:51;1999.90;;;999.90;;
10571;SDS011;5334;48.928;12.704;2022-10-17T06:00:18;1999.90;;;999.90;;
10571;SDS011;5334;48.928;12.704;2022-10-17T06:02:44;1999.90;;;999.90;;
10571;SDS011;5334;48.928;12.704;2022-10-17T06:05:10;1999.90;;;999.90;;
10571;SDS011;5334;48.928;12.704;2022-10-17T06:07:36;1999.90;;;999.90;;
10571;SDS011;5334;48.928;12.704;2022-10-17T06:10:02;1999.90;;;999.90;;
10571;SDS011;5334;48.928;12.704;2022-10-17T06:12:29;1999.90;;;999.90;;
10571;SDS011;5334;48.928;12.704;2022-10-17T06:14:54;1999.90;;;999.90;;
10571;SDS011;5334;48.928;12.704;2022-10-17T06:17:20;1999.90;;;999.90;;
10571;SDS011;5334;48.928;12.704;2022-10-17T06:19:46;1999.90;;;999.90;;
10571;SDS011;5334;48.928;12.704;2022-10-17T06:22:11;1999.90;;;999.90;;
10571;SDS011;5334;48.928;12.704;2022-10-17T06:24:37;1999.90;;;999.90;;
10571;SDS011;5334;48.928;12.704;2022-10-17T06:27:03;1999.90;;;999.90;;
10571;SDS011;5334;48.928;12.704;2022-10-17T06:29:29;1999.90;;;999.90;;
10571;SDS011;5334;48.928;12.704;2022-10-17T06:31:54;1999.90;;;999.90;;
10571;SDS011;5334;48.928;12.704;2022-10-17T06:34:20;1999.90;;;999.90;;
10571;SDS011;5334;48.928;12.704;2022-10-17T06:36:46;1999.90;;;999.90;;
10571;SDS011;5334;48.928;12.704;2022-10-17T06:39:12;1999.90;;;999.90;;
10571;SDS011;5334;48.928;12.704;2022-10-17T06:41:38;1999.90;;;999.90;;
10571;SDS011;5334;48.928;12.704;2022-10-17T06:44:05;1999.90;;;999.90;;
10571;SDS011;5334;48.928;12.704;2022-10-17T06:46:35;1999.90;;;999.90;;
10571;SDS011;5334;48.928;12.704;2022-10-17T06:49:02;1999.90;;;999.90;;
10571;SDS011;5334;48.928;12.704;2022-10-17T06:51:29;1999.90;;;999.90;;
10571;SDS011;5334;48.928;12.704;2022-10-17T06:53:56;1999.90;;;999.90;;
10571;SDS011;5334;48.928;12.704;2022-10-17T06:56:22;1999.90;;;999.90;;
10571;SDS011;5334;48.928;12.704;2022-10-17T06:58:48;1999.90;;;999.90;;
10571;SDS011;5334;48.928;12.704;2022-10-17T07:01:15;1999.90;;;999.90;;
10571;SDS011;5334;48.928;12.704;2022-10-17T07:03:41;1999.90;;;999.90;;
10571;SDS011;5334;48.928;12.704;2022-10-17T07:06:09;1999.90;;;999.90;;
10571;SDS011;5334;48.928;12.704;2022-10-17T07:08:35;1999.90;;;999.90;;
10571;SDS011;5334;48.928;12.704;2022-10-17T07:11:08;1999.90;;;999.90;;
10571;SDS011;5334;48.928;12.704;2022-10-17T07:13:38;1999.90;;;999.90;;
10571;SDS011;5334;48.928;12.704;2022-10-17T07:16:04;1999.90;;;999.90;;
10571;SDS011;5334;48.928;12.704;2022-10-17T07:18:30;1999.90;;;999.90;;
10571;SDS011;5334;48.928;12.704;2022-10-17T07:20:56;1999.90;;;999.90;;
10571;SDS011;5334;48.928;12.704;2022-10-17T07:23:22;1999.90;;;999.90;;
10571;SDS011;5334;48.928;12.704;2022-10-17T07:25:48;1999.90;;;999.90;;
10571;SDS011;5334;48.928;12.704;2022-10-17T07:28:14;1999.90;;;999.90;;
10571;SDS011;5334;48.928;12.704;2022-10-17T07:30:40;1999.90;;;999.90;;
10571;SDS011;5334;48.928;12.704;2022-10-17T07:33:06;1999.90;;;999.90;;
10571;SDS011;5334;48.928;12.704;2022-10-17T07:35:32;1999.90;;;999.90;;
10571;SDS011;5334;48.928;12.704;2022-10-17T07:37:57;1999.90;;;999.90;;
10571;SDS011;5334;48.928;12.704;2022-10-17T07:40:23;1999.90;;;999.90;;
10571;SDS011;5334;48.928;12.704;2022-10-17T07:42:49;1999.90;;;999.90;;
10571;SDS011;5334;48.928;12.704;2022-10-17T07:45:15;1999.90;;;999.90;;
10571;SDS011;5334;48.928;12.704;2022-10-17T07:47:41;1999.90;;;999.90;;
10571;SDS011;5334;48.928;12.704;2022-10-17T07:50:07;1999.90;;;999.90;;
10571;SDS011;5334;48.928;12.704;2022-10-17T07:52:33;1999.90;;;999.90;;
10571;SDS011;5334;48.928;12.704;2022-10-17T07:54:58;1999.90;;;999.90;;
10571;SDS011;5334;48.928;12.704;2022-10-17T07:57:24;1999.90;;;999.90;;
10571;SDS011;5334;48.928;12.704;2022-10-17T07:59:50;1999.90;;;999.90;;
10571;SDS011;5334;48.928;12.704;2022-10-17T08:02:23;1999.90;;;999.90;;
10571;SDS011;5334;48.928;12.704;2022-10-17T08:04:50;1999.90;;;999.90;;
10571;SDS011;5334;48.928;12.704;2022-10-17T08:07:16;1999.90;;;999.90;;
10571;SDS011;5334;48.928;12.704;2022-10-17T08:09:43;1999.90;;;999.90;;
10571;SDS011;5334;48.928;12.704;2022-10-17T08:12:10;1999.90;;;999.90;;
10571;SDS011;5334;48.928;12.704;2022-10-17T08:14:38;1999.90;;;999.90;;
10571;SDS011;5334;48.928;12.704;2022-10-17T08:17:04;1999.90;;;999.90;;
10571;SDS011;5334;48.928;12.704;2022-10-17T08:19:30;1999.90;;;999.90;;
10571;SDS011;5334;48.928;12.704;2022-10-17T08:21:56;1999.90;;;999.90;;
10571;SDS011;5334;48.928;12.704;2022-10-17T08:24:23;1999.90;;;999.90;;
10571;SDS011;5334;48.928;12.704;2022-10-17T08:26:49;1999.90;;;999.90;;
10571;SDS011;5334;48.928;12.704;2022-10-17T08:29:15;1999.90;;;999.90;;
10571;SDS011;5334;48.928;12.704;2022-10-17T08:31:41;1999.90;;;999.90;;
10571;SDS011;5334;48.928;12.704;2022-10-17T08:34:07;1999.90;;;999.90;;
10571;SDS011;5334;48.928;12.704;2022-10-17T08:36:32;1999.90;;;999.90;;
10571;SDS011;5334;48.928;12.704;2022-10-17T08:38:59;1999.90;;;999.90;;
10571;SDS011;5334;48.928;12.704;2022-10-17T08:41:41;1999.90;;;999.90;;
10571;SDS011;5334;48.928;12.704;2022-10-17T08:47:07;1999.90;;;999.90;;
10571;SDS011;5334;48.928;12.704;2022-10-17T08:52:03;1999.90;;;999.90;;
10571;SDS011;5334;48.928;12.704;2022-10-17T08:54:54;1999.90;;;999.90;;
10571;SDS011;5334;48.928;12.704;2022-10-17T08:57:20;1999.90;;;999.90;;
10571;SDS011;5334;48.928;12.704;2022-10-17T08:59:50;1999.90;;;999.90;;
10571;SDS011;5334;48.928;12.704;2022-10-17T09:10:13;1999.90;;;999.90;;
10571;SDS011;5334;48.928;12.704;2022-10-17T09:19:44;1999.90;;;999.90;;
10571;SDS011;5334;48.928;12.704;2022-10-17T09:24:56;1999.90;;;999.90;;
10571;SDS011;5334;48.928;12.704;2022-10-17T09:27:34;1999.90;;;999.90;;
10571;SDS011;5334;48.928;12.704;2022-10-17T09:35:44;1999.90;;;999.90;;
10571;SDS011;5334;48.928;12.704;2022-10-17T09:38:12;1999.90;;;999.90;;
10571;SDS011;5334;48.928;12.704;2022-10-17T09:40:45;1999.90;;;999.90;;
10571;SDS011;5334;48.928;12.704;2022-10-17T09:43:19;1999.90;;;999.90;;
10571;SDS011;5334;48.928;12.704;2022-10-17T09:45:49;1999.90;;;999.90;;
10571;SDS011;5334;48.928;12.704;2022-10-17T09:50:44;1999.90;;;999.90;;
10571;SDS011;5334;48.928;12.704;2022-10-17T09:53:12;708.00;;;372.87;;
10571;SDS011;5334;48.928;12.704;2022-10-17T09:55:44;712.17;;;376.83;;
10571;SDS011;5334;48.928;12.704;2022-10-17T09:58:12;1999.90;;;999.90;;
10571;SDS011;5334;48.928;12.704;2022-10-17T10:00:40;68.87;;;65.87;;
10571;SDS011;5334;48.928;12.704;2022-10-17T10:03:23;1999.90;;;999.90;;
10571;SDS011;5334;48.928;12.704;2022-10-17T10:08:29;1999.90;;;999.90;;
10571;SDS011;5334;48.928;12.704;2022-10-17T10:11:06;1999.90;;;999.90;;
10571;SDS011;5334;48.928;12.704;2022-10-17T10:13:33;1999.90;;;999.90;;
10571;SDS011;5334;48.928;12.704;2022-10-17T10:18:55;1999.90;;;999.90;;
10571;SDS011;5334;48.928;12.704;2022-10-17T10:21:22;1999.90;;;999.90;;
10571;SDS011;5334;48.928;12.704;2022-10-17T10:26:40;1999.90;;;999.90;;
10571;SDS011;5334;48.928;12.704;2022-10-17T10:31:46;1999.90;;;999.90;;
10571;SDS011;5334;48.928;12.704;2022-10-17T10:34:26;1999.90;;;999.90;;
10571;SDS011;5334;48.928;12.704;2022-10-17T10:36:55;1999.90;;;999.90;;
10571;SDS011;5334;48.928;12.704;2022-10-17T10:42:02;1999.90;;;999.90;;
10571;SDS011;5334;48.928;12.704;2022-10-17T10:44:32;1999.90;;;999.90;;
10571;SDS011;5334;48.928;12.704;2022-10-17T10:49:37;1999.90;;;999.90;;
10571;SDS011;5334;48.928;12.704;2022-10-17T10:52:03;1999.90;;;999.90;;
10571;SDS011;5334;48.928;12.704;2022-10-17T10:54:38;1999.90;;;999.90;;
10571;SDS011;5334;48.928;12.704;2022-10-17T10:57:12;1999.90;;;999.90;;
10571;SDS011;5334;48.928;12.704;2022-10-17T11:08:36;61.20;;;58.27;;
10571;SDS011;5334;48.928;12.704;2022-10-17T11:11:10;67.60;;;64.60;;
10571;SDS011;5334;48.928;12.704;2022-10-17T11:14:02;63.47;;;60.47;;
10571;SDS011;5334;48.928;12.704;2022-10-17T11:19:20;1999.90;;;999.90;;
10571;SDS011;5334;48.928;12.704;2022-10-17T11:22:15;60.83;;;58.13;;
10571;SDS011;5334;48.928;12.704;2022-10-17T11:24:49;1999.90;;;999.90;;
10571;SDS011;5334;48.928;12.704;2022-10-17T11:27:21;1999.90;;;999.90;;
10571;SDS011;5334;48.928;12.704;2022-10-17T11:29:48;1999.90;;;999.90;;
10571;SDS011;5334;48.928;12.704;2022-10-17T11:32:26;1999.90;;;999.90;;
10571;SDS011;5334;48.928;12.704;2022-10-17T11:40:43;1999.90;;;999.90;;
10571;SDS011;5334;48.928;12.704;2022-10-17T11:45:57;1999.90;;;999.90;;
10571;SDS011;5334;48.928;12.704;2022-10-17T11:48:38;64.03;;;61.23;;
10571;SDS011;5334;48.928;12.704;2022-10-17T11:51:10;1999.90;;;999.90;;
10571;SDS011;5334;48.928;12.704;2022-10-17T11:53:49;1999.90;;;999.90;;
10571;SDS011;5334;48.928;12.704;2022-10-17T12:08:12;62.93;;;60.17;;
10571;SDS011;5334;48.928;12.704;2022-10-17T12:13:46;57.07;;;54.53;;
10571;SDS011;5334;48.928;12.704;2022-10-17T12:18:45;54.73;;;52.23;;
10571;SDS011;5334;48.928;12.704;2022-10-17T12:22:16;57.43;;;54.83;;
10571;SDS011;5334;48.928;12.704;2022-10-17T12:30:17;60.63;;;57.97;;
10571;SDS011;5334;48.928;12.704;2022-10-17T12:35:23;55.30;;;52.80;;
10571;SDS011;5334;48.928;12.704;2022-10-17T12:42:59;53.60;;;51.30;;
10571;SDS011;5334;48.928;12.704;2022-10-17T12:45:46;52.83;;;50.50;;
10571;SDS011;5334;48.928;12.704;2022-10-17T12:51:02;52.40;;;50.10;;
10571;SDS011;5334;48.928;12.704;2022-10-17T12:53:44;52.97;;;50.63;;
10571;SDS011;5334;48.928;12.704;2022-10-17T12:56:29;75.60;;;72.30;;
10571;SDS011;5334;48.928;12.704;2022-10-17T12:59:00;63.67;;;60.83;;
10571;SDS011;5334;48.928;12.704;2022-10-17T13:01:33;76.93;;;73.57;;
10571;SDS011;5334;48.928;12.704;2022-10-17T13:04:02;1356.73;;;689.03;;
10571;SDS011;5334;48.928;12.704;2022-10-17T13:06:31;59.80;;;57.20;;
10571;SDS011;5334;48.928;12.704;2022-10-17T13:09:06;59.10;;;56.50;;
10571;SDS011;5334;48.928;12.704;2022-10-17T13:11:38;51.63;;;49.27;;
10571;SDS011;5334;48.928;12.704;2022-10-17T13:14:09;75.33;;;72.00;;
10571;SDS011;5334;48.928;12.704;2022-10-17T13:16:38;66.50;;;63.07;;
10571;SDS011;5334;48.928;12.704;2022-10-17T13:19:16;60.77;;;57.90;;
10571;SDS011;5334;48.928;12.704;2022-10-17T13:21:53;52.93;;;50.63;;
10571;SDS011;5334;48.928;12.704;2022-10-17T13:24:32;60.13;;;57.50;;
10571;SDS011;5334;48.928;12.704;2022-10-17T13:27:03;54.73;;;52.23;;
10571;SDS011;5334;48.928;12.704;2022-10-17T13:29:30;56.07;;;53.57;;
10571;SDS011;5334;48.928;12.704;2022-10-17T13:32:03;46.37;;;44.27;;
10571;SDS011;5334;48.928;12.704;2022-10-17T13:34:30;50.33;;;48.13;;
10571;SDS011;5334;48.928;12.704;2022-10-17T13:37:02;55.20;;;52.77;;
10571;SDS011;5334;48.928;12.704;2022-10-17T13:39:32;55.70;;;53.20;;
10571;SDS011;5334;48.928;12.704;2022-10-17T13:42:02;54.33;;;51.93;;
10571;SDS011;5334;48.928;12.704;2022-10-17T13:44:31;45.70;;;43.60;;
10571;SDS011;5334;48.928;12.704;2022-10-17T13:46:58;46.90;;;44.90;;
10571;SDS011;5334;48.928;12.704;2022-10-17T13:49:28;40.03;;;38.33;;
10571;SDS011;5334;48.928;12.704;2022-10-17T13:52:01;43.13;;;41.27;;
10571;SDS011;5334;48.928;12.704;2022-10-17T13:54:37;50.13;;;47.93;;
10571;SDS011;5334;48.928;12.704;2022-10-17T13:59:58;45.00;;;43.03;;
10571;SDS011;5334;48.928;12.704;2022-10-17T14:02:33;43.57;;;41.67;;
10571;SDS011;5334;48.928;12.704;2022-10-17T14:05:00;47.30;;;45.23;;
10571;SDS011;5334;48.928;12.704;2022-10-17T14:10:01;41.23;;;39.43;;
10571;SDS011;5334;48.928;12.704;2022-10-17T14:12:30;53.90;;;51.53;;
10571;SDS011;5334;48.928;12.704;2022-10-17T14:14:57;41.10;;;39.30;;
10571;SDS011;5334;48.928;12.704;2022-10-17T14:17:24;42.20;;;40.33;;
10571;SDS011;5334;48.928;12.704;2022-10-17T14:19:52;45.23;;;43.30;;
10571;SDS011;5334;48.928;12.704;2022-10-17T14:24:45;53.53;;;51.13;;
10571;SDS011;5334;48.928;12.704;2022-10-17T14:27:31;57.77;;;55.27;;
10571;SDS011;5334;48.928;12.704;2022-10-17T14:30:52;50.33;;;48.13;;
10571;SDS011;5334;48.928;12.704;2022-10-17T14:32:56;52.13;;;49.83;;
10571;SDS011;5334;48.928;12.704;2022-10-17T14:35:24;41.80;;;40.00;;
10571;SDS011;5334;48.928;12.704;2022-10-17T14:37:50;45.40;;;43.40;;
10571;SDS011;5334;48.928;12.704;2022-10-17T14:40:19;51.90;;;49.60;;
10571;SDS011;5334;48.928;12.704;2022-10-17T14:42:47;44.03;;;42.13;;
10571;SDS011;5334;48.928;12.704;2022-10-17T14:45:25;49.40;;;47.20;;
10571;SDS011;5334;48.928;12.704;2022-10-17T14:47:55;40.33;;;38.60;;
10571;SDS011;5334;48.928;12.704;2022-10-17T14:50:27;44.30;;;42.30;;
10571;SDS011;5334;48.928;12.704;2022-10-17T14:53:05;51.27;;;48.97;;
10571;SDS011;5334;48.928;12.704;2022-10-17T14:55:35;45.53;;;43.53;;
10571;SDS011;5334;48.928;12.704;2022-10-17T14:58:24;44.67;;;42.77;;
10571;SDS011;5334;48.928;12.704;2022-10-17T15:00:55;45.63;;;43.63;;
10571;SDS011;5334;48.928;12.704;2022-10-17T15:03:22;49.20;;;47.07;;
10571;SDS011;5334;48.928;12.704;2022-10-17T15:05:48;46.77;;;44.73;;
10571;SDS011;5334;48.928;12.704;2022-10-17T15:08:16;50.50;;;48.30;;
10571;SDS011;5334;48.928;12.704;2022-10-17T15:10:43;52.17;;;49.87;;
10571;SDS011;5334;48.928;12.704;2022-10-17T15:13:11;47.20;;;45.17;;
10571;SDS011;5334;48.928;12.704;2022-10-17T15:15:37;53.47;;;51.17;;
10571;SDS011;5334;48.928;12.704;2022-10-17T15:18:04;56.40;;;53.97;;
10571;SDS011;5334;48.928;12.704;2022-10-17T15:20:31;62.73;;;60.00;;
10571;SDS011;5334;48.928;12.704;2022-10-17T15:22:58;57.73;;;55.23;;
10571;SDS011;5334;48.928;12.704;2022-10-17T15:25:25;69.90;;;66.83;;
10571;SDS011;5334;48.928;12.704;2022-10-17T15:27:52;78.87;;;75.43;;
10571;SDS011;5334;48.928;12.704;2022-10-17T15:30:33;59.93;;;57.33;;
10571;SDS011;5334;48.928;12.704;2022-10-17T15:33:00;55.60;;;53.20;;
10571;SDS011;5334;48.928;12.704;2022-10-17T15:35:26;1999.90;;;999.90;;
10571;SDS011;5334;48.928;12.704;2022-10-17T15:37:52;54.47;;;52.10;;
10571;SDS011;5334;48.928;12.704;2022-10-17T15:40:23;58.97;;;56.37;;
10571;SDS011;5334;48.928;12.704;2022-10-17T15:42:50;54.67;;;52.27;;
10571;SDS011;5334;48.928;12.704;2022-10-17T15:45:16;56.17;;;53.73;;
10571;SDS011;5334;48.928;12.704;2022-10-17T15:47:48;58.47;;;55.97;;
10571;SDS011;5334;48.928;12.704;2022-10-17T15:50:18;50.77;;;48.57;;
10571;SDS011;5334;48.928;12.704;2022-10-17T15:52:45;58.33;;;55.83;;
10571;SDS011;5334;48.928;12.704;2022-10-17T15:55:14;1999.90;;;999.90;;
10571;SDS011;5334;48.928;12.704;2022-10-17T15:57:41;1999.90;;;999.90;;
10571;SDS011;5334;48.928;12.704;2022-10-17T16:00:15;1999.90;;;999.90;;
10571;SDS011;5334;48.928;12.704;2022-10-17T16:02:43;54.57;;;52.17;;
10571;SDS011;5334;48.928;12.704;2022-10-17T16:05:13;53.43;;;51.13;;
10571;SDS011;5334;48.928;12.704;2022-10-17T16:07:40;70.33;;;67.23;;
10571;SDS011;5334;48.928;12.704;2022-10-17T16:10:06;89.77;;;85.87;;
10571;SDS011;5334;48.928;12.704;2022-10-17T16:12:34;703.37;;;368.43;;
10571;SDS011;5334;48.928;12.704;2022-10-17T16:15:05;1999.90;;;999.90;;
10571;SDS011;5334;48.928;12.704;2022-10-17T16:17:43;1999.90;;;999.90;;
10571;SDS011;5334;48.928;12.704;2022-10-17T16:20:10;58.70;;;56.17;;
10571;SDS011;5334;48.928;12.704;2022-10-17T16:22:36;65.00;;;62.20;;
10571;SDS011;5334;48.928;12.704;2022-10-17T16:25:06;60.10;;;57.50;;
10571;SDS011;5334;48.928;12.704;2022-10-17T16:27:43;50.63;;;48.43;;